Vista Mar, Puerto Rico
Current Conditions -  °F | °C
As of 2:50 PM on Saturday 20 Dec 2014 (Local Time) from TJPS Reporting Station
Few Clouds Few Clouds  
Wind Chill: 30°   Ceiling: Unl
Heat Index: 33°   Visibility: 10mi
Dew Point: 22°   Wind: 12mph
Humidity: 62%   Direction: 120°ESE
Pressure: 29.93"   Gusts: 17mph
Location:  17.9714°N, 66.9064°W
Report Text: TJPS 201850Z 12010G15KT 10SM FEW030 30/22 A2993
Loading
Personal Weather Stations






























Interactive Weather Map New forecast layout! Learn more

10-Day Weather Forecast

Advertisements
Track Severe Weather on mobile